sensor_id;sensor_type;location;lat;lon;timestamp;temperature;humidity
43015;DHT22;28637;50.554;7.032;2023-12-20T00:03:10;6.00;99.90
43015;DHT22;28637;50.554;7.032;2023-12-20T00:08:10;6.10;99.90
43015;DHT22;28637;50.554;7.032;2023-12-20T00:13:11;6.10;99.90
43015;DHT22;28637;50.554;7.032;2023-12-20T00:18:12;6.20;99.90
43015;DHT22;28637;50.554;7.032;2023-12-20T00:23:12;6.30;99.90
43015;DHT22;28637;50.554;7.032;2023-12-20T00:28:13;6.30;99.90
43015;DHT22;28637;50.554;7.032;2023-12-20T00:33:14;6.40;99.90
43015;DHT22;28637;50.554;7.032;2023-12-20T00:38:14;6.40;99.90
43015;DHT22;28637;50.554;7.032;2023-12-20T00:43:15;6.40;99.90
43015;DHT22;28637;50.554;7.032;2023-12-20T00:48:16;6.40;99.90
43015;DHT22;28637;50.554;7.032;2023-12-20T00:53:16;6.40;99.90
43015;DHT22;28637;50.554;7.032;2023-12-20T00:58:17;6.40;99.90
43015;DHT22;28637;50.554;7.032;2023-12-20T01:03:18;6.40;99.90
43015;DHT22;28637;50.554;7.032;2023-12-20T01:08:19;6.40;99.90
43015;DHT22;28637;50.554;7.032;2023-12-20T01:13:20;6.40;99.90
43015;DHT22;28637;50.554;7.032;2023-12-20T01:18:21;6.40;99.90
43015;DHT22;28637;50.554;7.032;2023-12-20T01:23:21;6.50;99.90
43015;DHT22;28637;50.554;7.032;2023-12-20T01:28:22;6.60;99.90
43015;DHT22;28637;50.554;7.032;2023-12-20T01:33:23;6.60;99.90
43015;DHT22;28637;50.554;7.032;2023-12-20T01:38:23;6.70;99.90
43015;DHT22;28637;50.554;7.032;2023-12-20T01:43:24;6.80;99.90
43015;DHT22;28637;50.554;7.032;2023-12-20T01:53:35;7.00;99.90
43015;DHT22;28637;50.554;7.032;2023-12-20T01:58:39;7.00;99.90
43015;DHT22;28637;50.554;7.032;2023-12-20T02:08:53;7.10;99.90
43015;DHT22;28637;50.554;7.032;2023-12-20T02:13:55;7.10;99.90
43015;DHT22;28637;50.554;7.032;2023-12-20T02:18:56;7.10;99.90
43015;DHT22;28637;50.554;7.032;2023-12-20T02:23:56;7.10;99.90
43015;DHT22;28637;50.554;7.032;2023-12-20T02:28:57;7.00;99.90
43015;DHT22;28637;50.554;7.032;2023-12-20T02:49:30;6.10;99.90
43015;DHT22;28637;50.554;7.032;2023-12-20T02:54:30;5.90;99.90
43015;DHT22;28637;50.554;7.032;2023-12-20T02:59:31;5.80;99.90
43015;DHT22;28637;50.554;7.032;2023-12-20T03:04:32;5.70;99.90
43015;DHT22;28637;50.554;7.032;2023-12-20T03:20:18;5.50;99.90
43015;DHT22;28637;50.554;7.032;2023-12-20T03:25:21;5.50;99.90
43015;DHT22;28637;50.554;7.032;2023-12-20T03:30:30;5.60;99.90
43015;DHT22;28637;50.554;7.032;2023-12-20T03:35:31;5.60;99.90
43015;DHT22;28637;50.554;7.032;2023-12-20T03:40:32;5.60;99.90
43015;DHT22;28637;50.554;7.032;2023-12-20T03:45:33;5.70;99.90
43015;DHT22;28637;50.554;7.032;2023-12-20T03:50:39;5.70;99.90
43015;DHT22;28637;50.554;7.032;2023-12-20T03:55:42;5.70;99.90
43015;DHT22;28637;50.554;7.032;2023-12-20T04:00:45;5.80;99.90
43015;DHT22;28637;50.554;7.032;2023-12-20T04:05:46;5.80;99.90
43015;DHT22;28637;50.554;7.032;2023-12-20T04:10:51;5.70;99.90
43015;DHT22;28637;50.554;7.032;2023-12-20T04:15:52;5.70;99.90
43015;DHT22;28637;50.554;7.032;2023-12-20T04:20:52;5.80;99.90
43015;DHT22;28637;50.554;7.032;2023-12-20T04:25:55;5.80;99.90
43015;DHT22;28637;50.554;7.032;2023-12-20T04:30:58;5.80;99.90
43015;DHT22;28637;50.554;7.032;2023-12-20T04:35:59;5.80;99.90
43015;DHT22;28637;50.554;7.032;2023-12-20T04:41:01;5.80;99.90
43015;DHT22;28637;50.554;7.032;2023-12-20T04:46:03;5.80;99.90
43015;DHT22;28637;50.554;7.032;2023-12-20T04:51:04;5.80;99.90
43015;DHT22;28637;50.554;7.032;2023-12-20T04:56:06;5.80;99.90
43015;DHT22;28637;50.554;7.032;2023-12-20T05:01:08;5.70;99.90
43015;DHT22;28637;50.554;7.032;2023-12-20T05:06:11;5.50;99.90
43015;DHT22;28637;50.554;7.032;2023-12-20T05:11:13;5.60;99.90
43015;DHT22;28637;50.554;7.032;2023-12-20T05:16:15;5.60;99.90
43015;DHT22;28637;50.554;7.032;2023-12-20T05:21:20;5.70;99.90
43015;DHT22;28637;50.554;7.032;2023-12-20T05:26:23;5.70;99.90
43015;DHT22;28637;50.554;7.032;2023-12-20T05:31:24;5.80;99.90
43015;DHT22;28637;50.554;7.032;2023-12-20T05:36:33;5.70;99.90
43015;DHT22;28637;50.554;7.032;2023-12-20T05:41:34;5.60;99.90
43015;DHT22;28637;50.554;7.032;2023-12-20T05:46:34;5.80;99.90
43015;DHT22;28637;50.554;7.032;2023-12-20T05:57:35;6.00;99.90
43015;DHT22;28637;50.554;7.032;2023-12-20T06:08:40;5.90;99.90
43015;DHT22;28637;50.554;7.032;2023-12-20T06:13:58;5.80;99.90
43015;DHT22;28637;50.554;7.032;2023-12-20T06:43:03;5.50;99.90
43015;DHT22;28637;50.554;7.032;2023-12-20T06:48:19;5.60;99.90
43015;DHT22;28637;50.554;7.032;2023-12-20T07:06:00;5.60;99.90
43015;DHT22;28637;50.554;7.032;2023-12-20T07:11:12;5.70;99.90
43015;DHT22;28637;50.554;7.032;2023-12-20T07:22:34;5.70;99.90
43015;DHT22;28637;50.554;7.032;2023-12-20T07:27:35;5.80;99.90
43015;DHT22;28637;50.554;7.032;2023-12-20T07:32:35;6.00;99.90
43015;DHT22;28637;50.554;7.032;2023-12-20T07:37:36;6.10;99.90
43015;DHT22;28637;50.554;7.032;2023-12-20T07:42:37;6.10;99.90
43015;DHT22;28637;50.554;7.032;2023-12-20T07:47:37;6.00;99.90
43015;DHT22;28637;50.554;7.032;2023-12-20T07:57:55;6.00;99.90
43015;DHT22;28637;50.554;7.032;2023-12-20T08:02:56;6.00;99.90
43015;DHT22;28637;50.554;7.032;2023-12-20T08:07:56;6.00;99.90
43015;DHT22;28637;50.554;7.032;2023-12-20T08:12:57;6.10;99.90
43015;DHT22;28637;50.554;7.032;2023-12-20T08:17:58;6.10;99.90
43015;DHT22;28637;50.554;7.032;2023-12-20T08:22:59;6.10;99.90
43015;DHT22;28637;50.554;7.032;2023-12-20T08:43:57;6.10;99.90
43015;DHT22;28637;50.554;7.032;2023-12-20T08:48:58;6.10;99.90
43015;DHT22;28637;50.554;7.032;2023-12-20T08:53:59;6.10;99.90
43015;DHT22;28637;50.554;7.032;2023-12-20T08:58:59;6.20;99.90
43015;DHT22;28637;50.554;7.032;2023-12-20T09:04:00;6.10;99.90
43015;DHT22;28637;50.554;7.032;2023-12-20T09:09:01;6.00;99.90
43015;DHT22;28637;50.554;7.032;2023-12-20T09:14:01;5.90;99.90
43015;DHT22;28637;50.554;7.032;2023-12-20T09:19:02;6.00;99.90
43015;DHT22;28637;50.554;7.032;2023-12-20T09:24:03;6.20;99.90
43015;DHT22;28637;50.554;7.032;2023-12-20T09:34:15;6.40;99.90
43015;DHT22;28637;50.554;7.032;2023-12-20T09:39:17;6.30;99.90
43015;DHT22;28637;50.554;7.032;2023-12-20T09:44:19;6.40;99.90
43015;DHT22;28637;50.554;7.032;2023-12-20T09:49:21;6.50;99.90
43015;DHT22;28637;50.554;7.032;2023-12-20T09:54:22;6.50;99.90
43015;DHT22;28637;50.554;7.032;2023-12-20T09:59:23;6.50;99.90
43015;DHT22;28637;50.554;7.032;2023-12-20T10:04:24;6.50;99.90
43015;DHT22;28637;50.554;7.032;2023-12-20T10:09:26;6.60;99.90
43015;DHT22;28637;50.554;7.032;2023-12-20T10:14:29;6.60;99.90
43015;DHT22;28637;50.554;7.032;2023-12-20T10:19:30;6.70;99.90
43015;DHT22;28637;50.554;7.032;2023-12-20T10:24:31;6.70;99.90
43015;DHT22;28637;50.554;7.032;2023-12-20T10:29:36;6.70;99.90
43015;DHT22;28637;50.554;7.032;2023-12-20T10:34:36;6.80;99.90
43015;DHT22;28637;50.554;7.032;2023-12-20T10:39:38;6.70;99.90
43015;DHT22;28637;50.554;7.032;2023-12-20T10:44:39;6.70;99.90
43015;DHT22;28637;50.554;7.032;2023-12-20T10:49:40;6.70;99.90
43015;DHT22;28637;50.554;7.032;2023-12-20T10:59:54;6.70;99.90
43015;DHT22;28637;50.554;7.032;2023-12-20T11:10:23;6.60;99.90
43015;DHT22;28637;50.554;7.032;2023-12-20T11:15:25;6.60;99.90
43015;DHT22;28637;50.554;7.032;2023-12-20T11:20:37;6.60;99.90
43015;DHT22;28637;50.554;7.032;2023-12-20T11:25:49;6.60;99.90
43015;DHT22;28637;50.554;7.032;2023-12-20T11:30:53;6.70;99.90
43015;DHT22;28637;50.554;7.032;2023-12-20T11:35:56;6.70;99.90
43015;DHT22;28637;50.554;7.032;2023-12-20T11:46:09;6.70;99.90
43015;DHT22;28637;50.554;7.032;2023-12-20T11:51:10;6.70;99.90
43015;DHT22;28637;50.554;7.032;2023-12-20T12:01:22;6.70;99.90
43015;DHT22;28637;50.554;7.032;2023-12-20T12:16:44;6.70;99.90
43015;DHT22;28637;50.554;7.032;2023-12-20T12:21:46;6.70;99.90
43015;DHT22;28637;50.554;7.032;2023-12-20T12:26:50;6.70;99.90
43015;DHT22;28637;50.554;7.032;2023-12-20T12:31:52;6.70;99.90
43015;DHT22;28637;50.554;7.032;2023-12-20T12:36:52;6.60;99.90
43015;DHT22;28637;50.554;7.032;2023-12-20T12:41:53;6.50;99.90
43015;DHT22;28637;50.554;7.032;2023-12-20T12:46:54;6.70;99.90
43015;DHT22;28637;50.554;7.032;2023-12-20T12:51:55;6.50;99.90
43015;DHT22;28637;50.554;7.032;2023-12-20T12:56:58;6.50;99.90
43015;DHT22;28637;50.554;7.032;2023-12-20T13:02:00;6.40;99.90
43015;DHT22;28637;50.554;7.032;2023-12-20T13:07:01;6.50;99.90
43015;DHT22;28637;50.554;7.032;2023-12-20T13:12:02;6.50;99.90
43015;DHT22;28637;50.554;7.032;2023-12-20T13:17:04;6.50;99.90
43015;DHT22;28637;50.554;7.032;2023-12-20T13:22:05;6.60;99.90
43015;DHT22;28637;50.554;7.032;2023-12-20T13:27:06;6.60;99.90
43015;DHT22;28637;50.554;7.032;2023-12-20T13:32:09;6.70;99.90
43015;DHT22;28637;50.554;7.032;2023-12-20T13:37:11;6.80;99.90
43015;DHT22;28637;50.554;7.032;2023-12-20T13:42:12;6.80;99.90
43015;DHT22;28637;50.554;7.032;2023-12-20T13:47:13;6.70;99.90
43015;DHT22;28637;50.554;7.032;2023-12-20T13:52:14;6.80;99.90
43015;DHT22;28637;50.554;7.032;2023-12-20T13:57:14;6.80;99.90
43015;DHT22;28637;50.554;7.032;2023-12-20T14:02:15;7.00;99.90
43015;DHT22;28637;50.554;7.032;2023-12-20T14:07:16;6.90;99.90
43015;DHT22;28637;50.554;7.032;2023-12-20T14:12:17;6.80;99.90
43015;DHT22;28637;50.554;7.032;2023-12-20T14:17:18;6.80;99.90
43015;DHT22;28637;50.554;7.032;2023-12-20T14:32:40;6.50;99.90
43015;DHT22;28637;50.554;7.032;2023-12-20T14:37:40;6.50;99.90
43015;DHT22;28637;50.554;7.032;2023-12-20T14:42:44;6.50;99.90
43015;DHT22;28637;50.554;7.032;2023-12-20T14:53:42;6.50;99.90
43015;DHT22;28637;50.554;7.032;2023-12-20T14:58:42;6.60;99.90
43015;DHT22;28637;50.554;7.032;2023-12-20T15:03:43;6.50;99.90
43015;DHT22;28637;50.554;7.032;2023-12-20T15:08:44;6.50;99.90
43015;DHT22;28637;50.554;7.032;2023-12-20T15:13:44;6.60;99.90
43015;DHT22;28637;50.554;7.032;2023-12-20T15:18:47;6.60;99.90
43015;DHT22;28637;50.554;7.032;2023-12-20T15:23:48;6.60;99.90
43015;DHT22;28637;50.554;7.032;2023-12-20T15:28:55;6.70;99.90
43015;DHT22;28637;50.554;7.032;2023-12-20T15:33:56;6.70;99.90
43015;DHT22;28637;50.554;7.032;2023-12-20T15:38:57;6.70;99.90
43015;DHT22;28637;50.554;7.032;2023-12-20T15:43:57;6.60;99.90
43015;DHT22;28637;50.554;7.032;2023-12-20T15:48:58;6.60;99.90
43015;DHT22;28637;50.554;7.032;2023-12-20T15:53:59;6.60;99.90
43015;DHT22;28637;50.554;7.032;2023-12-20T15:59:05;6.60;99.90
43015;DHT22;28637;50.554;7.032;2023-12-20T16:09:16;6.60;99.90
43015;DHT22;28637;50.554;7.032;2023-12-20T16:14:17;6.60;99.90
43015;DHT22;28637;50.554;7.032;2023-12-20T16:19:20;6.50;99.90
43015;DHT22;28637;50.554;7.032;2023-12-20T16:24:21;6.50;99.90
43015;DHT22;28637;50.554;7.032;2023-12-20T16:29:21;6.50;99.90
43015;DHT22;28637;50.554;7.032;2023-12-20T16:34:22;6.40;99.90
43015;DHT22;28637;50.554;7.032;2023-12-20T16:39:23;6.30;99.90
43015;DHT22;28637;50.554;7.032;2023-12-20T16:44:24;6.30;99.90
43015;DHT22;28637;50.554;7.032;2023-12-20T16:49:24;6.40;99.90
43015;DHT22;28637;50.554;7.032;2023-12-20T17:00:22;6.40;99.90
43015;DHT22;28637;50.554;7.032;2023-12-20T17:05:24;6.40;99.90
43015;DHT22;28637;50.554;7.032;2023-12-20T17:10:24;6.30;99.90
43015;DHT22;28637;50.554;7.032;2023-12-20T17:15:25;6.40;99.90
43015;DHT22;28637;50.554;7.032;2023-12-20T17:20:26;6.30;99.90
43015;DHT22;28637;50.554;7.032;2023-12-20T17:25:26;6.40;99.90
43015;DHT22;28637;50.554;7.032;2023-12-20T17:30:27;6.40;99.90
43015;DHT22;28637;50.554;7.032;2023-12-20T17:35:28;6.30;99.90
43015;DHT22;28637;50.554;7.032;2023-12-20T17:40:29;6.40;99.90
43015;DHT22;28637;50.554;7.032;2023-12-20T17:45:29;6.40;99.90
43015;DHT22;28637;50.554;7.032;2023-12-20T17:50:31;6.40;99.90
43015;DHT22;28637;50.554;7.032;2023-12-20T17:55:32;6.40;99.90
43015;DHT22;28637;50.554;7.032;2023-12-20T18:00:35;6.50;99.90
43015;DHT22;28637;50.554;7.032;2023-12-20T18:05:36;6.60;99.90
43015;DHT22;28637;50.554;7.032;2023-12-20T18:10:37;6.60;99.90
43015;DHT22;28637;50.554;7.032;2023-12-20T18:15:37;6.70;99.90
43015;DHT22;28637;50.554;7.032;2023-12-20T18:25:48;6.80;99.90
43015;DHT22;28637;50.554;7.032;2023-12-20T18:30:54;6.80;99.90
43015;DHT22;28637;50.554;7.032;2023-12-20T18:35:54;6.90;99.90
43015;DHT22;28637;50.554;7.032;2023-12-20T18:40:55;7.00;99.90
43015;DHT22;28637;50.554;7.032;2023-12-20T18:45:57;7.10;99.90
43015;DHT22;28637;50.554;7.032;2023-12-20T18:50:58;7.10;99.90
43015;DHT22;28637;50.554;7.032;2023-12-20T18:55:59;7.10;99.90
43015;DHT22;28637;50.554;7.032;2023-12-20T19:00:59;7.10;99.90
43015;DHT22;28637;50.554;7.032;2023-12-20T19:06:02;7.10;99.90
43015;DHT22;28637;50.554;7.032;2023-12-20T19:11:03;7.20;99.90
43015;DHT22;28637;50.554;7.032;2023-12-20T19:16:04;7.20;99.90
43015;DHT22;28637;50.554;7.032;2023-12-20T19:21:05;7.10;99.90
43015;DHT22;28637;50.554;7.032;2023-12-20T19:26:11;7.10;99.90
43015;DHT22;28637;50.554;7.032;2023-12-20T19:31:13;7.10;99.90
43015;DHT22;28637;50.554;7.032;2023-12-20T19:36:15;7.10;99.90
43015;DHT22;28637;50.554;7.032;2023-12-20T19:41:16;7.00;99.90
43015;DHT22;28637;50.554;7.032;2023-12-20T19:46:18;7.00;99.90
43015;DHT22;28637;50.554;7.032;2023-12-20T19:51:20;7.00;99.90
43015;DHT22;28637;50.554;7.032;2023-12-20T19:56:21;7.00;99.90
43015;DHT22;28637;50.554;7.032;2023-12-20T20:01:23;7.00;99.90
43015;DHT22;28637;50.554;7.032;2023-12-20T20:06:24;7.10;99.90
43015;DHT22;28637;50.554;7.032;2023-12-20T20:11:25;7.10;99.90
43015;DHT22;28637;50.554;7.032;2023-12-20T20:16:26;7.10;99.90
43015;DHT22;28637;50.554;7.032;2023-12-20T20:27:23;7.20;99.90
43015;DHT22;28637;50.554;7.032;2023-12-20T20:32:24;7.20;99.90
43015;DHT22;28637;50.554;7.032;2023-12-20T20:37:25;7.20;99.90
43015;DHT22;28637;50.554;7.032;2023-12-20T20:42:25;7.30;99.90
43015;DHT22;28637;50.554;7.032;2023-12-20T20:52:36;7.30;99.90
43015;DHT22;28637;50.554;7.032;2023-12-20T20:57:37;7.50;99.90
43015;DHT22;28637;50.554;7.032;2023-12-20T21:07:48;7.30;99.90
43015;DHT22;28637;50.554;7.032;2023-12-20T21:12:49;7.30;99.90
43015;DHT22;28637;50.554;7.032;2023-12-20T21:17:49;7.30;99.90
43015;DHT22;28637;50.554;7.032;2023-12-20T21:22:50;7.40;99.90
43015;DHT22;28637;50.554;7.032;2023-12-20T21:33:01;7.50;99.90
43015;DHT22;28637;50.554;7.032;2023-12-20T21:38:02;7.50;99.90
43015;DHT22;28637;50.554;7.032;2023-12-20T21:43:04;7.50;99.90
43015;DHT22;28637;50.554;7.032;2023-12-20T21:48:06;7.60;99.90
43015;DHT22;28637;50.554;7.032;2023-12-20T21:53:06;7.60;99.90
43015;DHT22;28637;50.554;7.032;2023-12-20T22:03:20;7.70;99.90
43015;DHT22;28637;50.554;7.032;2023-12-20T22:08:22;7.60;99.90
43015;DHT22;28637;50.554;7.032;2023-12-20T22:13:22;7.60;99.90
43015;DHT22;28637;50.554;7.032;2023-12-20T22:18:23;7.50;99.90
43015;DHT22;28637;50.554;7.032;2023-12-20T22:23:24;7.50;99.90
43015;DHT22;28637;50.554;7.032;2023-12-20T22:28:25;7.40;99.90
43015;DHT22;28637;50.554;7.032;2023-12-20T22:33:25;7.40;99.90
43015;DHT22;28637;50.554;7.032;2023-12-20T22:38:26;7.30;99.90
43015;DHT22;28637;50.554;7.032;2023-12-20T22:48:38;7.30;99.90
43015;DHT22;28637;50.554;7.032;2023-12-20T22:53:39;7.30;99.90
43015;DHT22;28637;50.554;7.032;2023-12-20T22:58:39;7.30;99.90
43015;DHT22;28637;50.554;7.032;2023-12-20T23:03:40;7.20;99.90
43015;DHT22;28637;50.554;7.032;2023-12-20T23:08:41;7.20;99.90
43015;DHT22;28637;50.554;7.032;2023-12-20T23:13:41;7.20;99.90
43015;DHT22;28637;50.554;7.032;2023-12-20T23:18:42;7.20;99.90
43015;DHT22;28637;50.554;7.032;2023-12-20T23:23:43;7.20;99.90
43015;DHT22;28637;50.554;7.032;2023-12-20T23:28:45;7.20;99.90
43015;DHT22;28637;50.554;7.032;2023-12-20T23:33:45;7.20;99.90
43015;DHT22;28637;50.554;7.032;2023-12-20T23:38:46;7.30;99.90
43015;DHT22;28637;50.554;7.032;2023-12-20T23:43:47;7.30;99.90
43015;DHT22;28637;50.554;7.032;2023-12-20T23:48:47;7.30;99.90
43015;DHT22;28637;50.554;7.032;2023-12-20T23:53:48;7.30;99.90
43015;DHT22;28637;50.554;7.032;2023-12-20T23:58:49;7.30;99.90
